Time;durP1;ratioP1;P1;durP2;ratioP2;P2;SDS_P1;SDS_P2;PMS_P1;PMS_P2;Temp;Humidity;BMP_temperature;BMP_pressure;BME280_temperature;BME280_humidity;BME280_pressure;Samples;Min_cycle;Max_cycle;Signal;HPM_P1;HPM_P2
2023/02/18 00:03:50;;;;;;;18.60;11.30;;;;;;;;;;10413451;28;20087;-58
2023/02/18 00:08:52;;;;;;;16.23;10.43;;;;;;;;;;10412527;28;20327;-55
2023/02/18 00:13:57;;;;;;;15.73;11.52;;;;;;;;;;10412878;28;20079;-58
2023/02/18 00:19:02;;;;;;;18.40;11.57;;;;;;;;;;10412766;28;20029;-56
2023/02/18 00:24:05;;;;;;;19.70;10.95;;;;;;;;;;10411343;28;20033;-55
2023/02/18 00:29:05;;;;;;;14.50;10.77;;;;;;;;;;10412509;28;20400;-53
2023/02/18 00:34:06;;;;;;;14.55;9.80;;;;;;;;;;10412246;28;20034;-53
2023/02/18 00:39:09;;;;;;;13.90;10.77;;;;;;;;;;10411664;28;20041;-55
2023/02/18 00:44:11;;;;;;;14.05;10.93;;;;;;;;;;10411791;28;20067;-56
2023/02/18 00:49:12;;;;;;;13.65;10.60;;;;;;;;;;10411835;28;20477;-54
2023/02/18 00:54:13;;;;;;;13.65;10.98;;;;;;;;;;10411586;28;20083;-55
2023/02/18 00:59:13;;;;;;;14.15;10.77;;;;;;;;;;10411515;28;20018;-57
2023/02/18 01:04:14;;;;;;;18.25;9.68;;;;;;;;;;10409657;28;20473;-55
2023/02/18 01:09:14;;;;;;;11.85;10.00;;;;;;;;;;10410343;28;20432;-58
2023/02/18 01:14:15;;;;;;;11.52;9.63;;;;;;;;;;10410619;28;20025;-56
2023/02/18 01:19:15;;;;;;;12.18;8.90;;;;;;;;;;10410894;28;20088;-52
2023/02/18 01:24:16;;;;;;;12.05;9.45;;;;;;;;;;10410269;28;20033;-54
2023/02/18 01:29:17;;;;;;;14.82;9.07;;;;;;;;;;10408446;28;20056;-54
2023/02/18 01:34:17;;;;;;;15.52;9.63;;;;;;;;;;10377202;28;20025;-58
2023/02/18 01:39:18;;;;;;;11.35;8.80;;;;;;;;;;10405458;28;20052;-58
2023/02/18 01:44:23;;;;;;;12.52;8.57;;;;;;;;;;10409109;28;20037;-58
2023/02/18 01:49:34;;;;;;;13.00;8.40;;;;;;;;;;10406576;28;20120;-57
2023/02/18 01:54:42;;;;;;;11.95;8.50;;;;;;;;;;10399459;28;20037;-58
2023/02/18 02:00:02;;;;;;;10.50;8.95;;;;;;;;;;10407812;28;20024;-54
2023/02/18 02:05:03;;;;;;;10.23;8.43;;;;;;;;;;10406127;28;20030;-54
2023/02/18 02:10:05;;;;;;;11.65;8.90;;;;;;;;;;10408517;28;20025;-52
2023/02/18 02:15:32;;;;;;;11.57;9.00;;;;;;;;;;10407217;28;20037;-53
2023/02/18 02:20:51;;;;;;;12.27;8.80;;;;;;;;;;10402413;28;20041;-54
2023/02/18 02:26:34;;;;;;;11.60;8.45;;;;;;;;;;10408088;28;20072;-53
2023/02/18 02:32:06;;;;;;;11.50;7.82;;;;;;;;;;10402445;28;20161;-50
2023/02/18 02:37:15;;;;;;;10.27;8.00;;;;;;;;;;10382460;28;20045;-53
2023/02/18 02:42:25;;;;;;;9.00;8.10;;;;;;;;;;10407285;28;20029;-55
2023/02/18 02:47:55;;;;;;;11.70;8.38;;;;;;;;;;10407573;28;20031;-56
2023/02/18 02:53:01;;;;;;;9.32;7.80;;;;;;;;;;10406470;28;20071;-57
2023/02/18 02:58:01;;;;;;;9.77;8.07;;;;;;;;;;10406426;28;20022;-57
2023/02/18 03:03:07;;;;;;;9.82;7.32;;;;;;;;;;10414085;28;20401;-56
2023/02/18 03:09:14;;;;;;;10.23;7.90;;;;;;;;;;10415381;28;20607;-58
2023/02/18 03:14:21;;;;;;;10.05;7.70;;;;;;;;;;10286806;28;20038;-58
2023/02/18 03:19:37;;;;;;;8.85;7.80;;;;;;;;;;10287499;28;20066;-54
2023/02/18 03:24:45;;;;;;;9.75;7.50;;;;;;;;;;10287020;28;20461;-60
2023/02/18 03:29:54;;;;;;;8.25;7.43;;;;;;;;;;10287415;28;20503;-57
2023/02/18 03:35:01;;;;;;;9.30;7.85;;;;;;;;;;10286817;28;20239;-54
2023/02/18 03:40:02;;;;;;;9.93;7.40;;;;;;;;;;10270749;28;20047;-57
2023/02/18 03:45:03;;;;;;;8.32;7.50;;;;;;;;;;10388483;28;20033;-59
2023/02/18 03:50:05;;;;;;;8.95;7.53;;;;;;;;;;10413980;28;20512;-56
2023/02/18 03:55:06;;;;;;;9.40;7.53;;;;;;;;;;10413650;28;20063;-54
2023/02/18 04:00:09;;;;;;;10.88;7.35;;;;;;;;;;10412050;28;20033;-52
2023/02/18 04:05:10;;;;;;;9.00;8.00;;;;;;;;;;10413200;28;20392;-58
2023/02/18 04:10:11;;;;;;;9.95;7.53;;;;;;;;;;10412881;28;20095;-58
2023/02/18 04:15:12;;;;;;;8.30;7.30;;;;;;;;;;10411746;28;20392;-56
2023/02/18 04:20:13;;;;;;;10.43;7.45;;;;;;;;;;10412716;28;20029;-54
2023/02/18 04:25:13;;;;;;;11.18;7.00;;;;;;;;;;10412614;28;20025;-55
2023/02/18 04:30:14;;;;;;;8.65;7.50;;;;;;;;;;10412704;28;20492;-57
2023/02/18 04:35:15;;;;;;;8.63;6.90;;;;;;;;;;10411921;28;20269;-58
2023/02/18 04:40:15;;;;;;;8.75;7.07;;;;;;;;;;10404200;28;20033;-57
2023/02/18 04:45:16;;;;;;;10.38;7.28;;;;;;;;;;10411886;28;20056;-57
2023/02/18 04:50:17;;;;;;;9.43;6.43;;;;;;;;;;10411935;28;20029;-55
2023/02/18 04:55:18;;;;;;;9.57;6.22;;;;;;;;;;10411680;28;20039;-58
2023/02/18 05:00:19;;;;;;;10.27;7.07;;;;;;;;;;10411380;28;20600;-57
2023/02/18 05:05:20;;;;;;;8.43;6.68;;;;;;;;;;10411345;28;20373;-57
2023/02/18 05:10:20;;;;;;;8.63;6.85;;;;;;;;;;10411116;28;20051;-57
2023/02/18 05:15:21;;;;;;;8.27;6.72;;;;;;;;;;10410538;28;20017;-58
2023/02/18 05:20:21;;;;;;;9.20;7.03;;;;;;;;;;10410499;28;20026;-52
2023/02/18 05:25:22;;;;;;;8.63;6.18;;;;;;;;;;10410400;28;20025;-56
2023/02/18 05:30:23;;;;;;;10.35;6.90;;;;;;;;;;10410249;28;20037;-52
2023/02/18 05:35:23;;;;;;;10.25;6.85;;;;;;;;;;10409706;28;20485;-55
2023/02/18 05:40:24;;;;;;;7.72;6.78;;;;;;;;;;10404837;28;20025;-49
2023/02/18 05:45:25;;;;;;;7.72;6.47;;;;;;;;;;10409740;28;20025;-52
2023/02/18 05:50:25;;;;;;;8.38;6.75;;;;;;;;;;10409015;28;20025;-52
2023/02/18 05:55:26;;;;;;;6.97;6.28;;;;;;;;;;10409454;28;20636;-50
2023/02/18 06:00:28;;;;;;;7.95;6.75;;;;;;;;;;10408841;28;20028;-51
2023/02/18 06:05:29;;;;;;;7.25;6.40;;;;;;;;;;10409240;28;20053;-56
2023/02/18 06:10:29;;;;;;;7.40;6.63;;;;;;;;;;10408737;28;20075;-52
2023/02/18 06:15:30;;;;;;;8.25;6.65;;;;;;;;;;10408348;28;20021;-53
2023/02/18 06:20:31;;;;;;;7.93;6.55;;;;;;;;;;10404163;28;20045;-53
2023/02/18 06:25:31;;;;;;;7.50;6.25;;;;;;;;;;10407338;28;20215;-54
2023/02/18 06:30:32;;;;;;;9.10;6.50;;;;;;;;;;10408154;28;20033;-57
2023/02/18 06:35:33;;;;;;;7.10;6.05;;;;;;;;;;10407048;28;20053;-53
2023/02/18 06:40:34;;;;;;;9.32;6.75;;;;;;;;;;10401659;28;20044;-52
2023/02/18 06:45:34;;;;;;;10.50;8.07;;;;;;;;;;10404865;28;20038;-57
2023/02/18 06:50:35;;;;;;;15.40;8.32;;;;;;;;;;10396699;28;20308;-55
2023/02/18 06:55:36;;;;;;;15.77;8.90;;;;;;;;;;10405860;28;20037;-53
2023/02/18 07:00:37;;;;;;;10.68;8.30;;;;;;;;;;10400030;28;20485;-56
2023/02/18 07:05:37;;;;;;;10.80;8.52;;;;;;;;;;10402827;28;20464;-55
2023/02/18 07:10:38;;;;;;;9.63;8.13;;;;;;;;;;10399776;28;20026;-54
2023/02/18 07:15:39;;;;;;;9.18;8.27;;;;;;;;;;10404248;28;20043;-53
2023/02/18 07:20:39;;;;;;;11.00;8.25;;;;;;;;;;10391257;28;20067;-54
2023/02/18 07:25:40;;;;;;;10.93;9.00;;;;;;;;;;10405834;28;20026;-54
2023/02/18 07:30:41;;;;;;;12.95;7.85;;;;;;;;;;10405608;28;20112;-56
2023/02/18 07:35:41;;;;;;;9.65;7.93;;;;;;;;;;10406045;28;20103;-56
2023/02/18 07:40:44;;;;;;;9.38;8.10;;;;;;;;;;10399705;28;20022;-54
2023/02/18 07:45:45;;;;;;;11.27;8.55;;;;;;;;;;10399511;28;20033;-57
2023/02/18 07:50:46;;;;;;;11.52;7.95;;;;;;;;;;10407003;28;20056;-56
2023/02/18 07:55:49;;;;;;;10.82;8.20;;;;;;;;;;10410723;28;20120;-58
2023/02/18 08:00:53;;;;;;;9.45;7.63;;;;;;;;;;10409150;28;20037;-53
2023/02/18 08:05:54;;;;;;;17.77;8.98;;;;;;;;;;10406169;28;20049;-60
2023/02/18 08:11:01;;;;;;;25.40;9.25;;;;;;;;;;10409455;28;20037;-58
2023/02/18 08:16:02;;;;;;;15.32;9.25;;;;;;;;;;10397963;28;20021;-60
2023/02/18 08:21:02;;;;;;;22.52;10.98;;;;;;;;;;10405172;28;20416;-60
2023/02/18 08:26:03;;;;;;;26.92;12.40;;;;;;;;;;10411464;28;20104;-60
2023/02/18 08:31:04;;;;;;;26.90;13.88;;;;;;;;;;10410883;28;20026;-60
2023/02/18 08:36:06;;;;;;;27.67;16.13;;;;;;;;;;10408266;28;20034;-60
2023/02/18 08:41:08;;;;;;;30.65;16.33;;;;;;;;;;10406554;28;20109;-60
2023/02/18 08:46:09;;;;;;;25.42;15.65;;;;;;;;;;10410759;28;20021;-59
2023/02/18 08:51:13;;;;;;;46.03;18.25;;;;;;;;;;10402162;28;20040;-59
2023/02/18 08:56:16;;;;;;;57.28;18.52;;;;;;;;;;10409993;28;20508;-59
2023/02/18 09:01:16;;;;;;;37.35;18.15;;;;;;;;;;10402767;28;20374;-58
2023/02/18 09:06:17;;;;;;;44.53;18.05;;;;;;;;;;10406111;28;20116;-58
2023/02/18 09:11:18;;;;;;;52.15;18.30;;;;;;;;;;10404526;28;20017;-58
2023/02/18 09:16:19;;;;;;;66.78;19.20;;;;;;;;;;10408933;28;20028;-60
2023/02/18 09:21:21;;;;;;;59.28;21.77;;;;;;;;;;10405319;28;20118;-59
2023/02/18 09:26:22;;;;;;;76.53;23.90;;;;;;;;;;10406494;28;20445;-60
2023/02/18 09:31:25;;;;;;;58.25;23.60;;;;;;;;;;10401046;28;20029;-57
2023/02/18 09:36:26;;;;;;;66.75;22.92;;;;;;;;;;10407374;28;20181;-57
2023/02/18 09:41:52;;;;;;;53.00;22.63;;;;;;;;;;10401546;28;20121;-57
2023/02/18 09:47:24;;;;;;;53.78;23.80;;;;;;;;;;10402642;28;20029;-57
2023/02/18 09:52:34;;;;;;;50.60;21.75;;;;;;;;;;10393167;28;20077;-58
2023/02/18 09:57:45;;;;;;;51.75;22.95;;;;;;;;;;10407410;28;20396;-57
2023/02/18 10:02:56;;;;;;;51.50;21.90;;;;;;;;;;10407405;28;20152;-56
2023/02/18 10:08:12;;;;;;;48.13;23.25;;;;;;;;;;10400750;28;20025;-56
2023/02/18 10:13:33;;;;;;;53.97;23.67;;;;;;;;;;10399203;28;20029;-57
2023/02/18 10:18:44;;;;;;;60.15;28.75;;;;;;;;;;10407905;28;20152;-57
2023/02/18 10:24:00;;;;;;;59.97;28.98;;;;;;;;;;10407398;28;20188;-57
2023/02/18 10:29:01;;;;;;;66.10;31.10;;;;;;;;;;10404981;28;20481;-57
2023/02/18 10:34:14;;;;;;;55.85;28.67;;;;;;;;;;10405849;28;20025;-57
2023/02/18 10:40:18;;;;;;;56.03;29.38;;;;;;;;;;10398808;28;20033;-58
2023/02/18 10:45:47;;;;;;;54.22;28.40;;;;;;;;;;10279618;28;20050;-58
2023/02/18 10:50:48;;;;;;;47.75;29.05;;;;;;;;;;10262935;28;20043;-58
2023/02/18 10:55:49;;;;;;;58.30;32.17;;;;;;;;;;10278642;28;20049;-58
2023/02/18 11:00:50;;;;;;;59.78;31.48;;;;;;;;;;10278975;28;20051;-57
2023/02/18 11:05:55;;;;;;;57.30;29.70;;;;;;;;;;10283676;28;20709;-58
2023/02/18 11:10:56;;;;;;;47.22;26.90;;;;;;;;;;10277734;28;20077;-58
2023/02/18 11:15:59;;;;;;;50.72;26.23;;;;;;;;;;10370331;28;20037;-58
2023/02/18 11:21:04;;;;;;;47.92;25.23;;;;;;;;;;10421907;28;20506;-57
2023/02/18 11:26:11;;;;;;;43.83;27.48;;;;;;;;;;10408929;28;20060;-58
2023/02/18 11:31:25;;;;;;;59.55;26.88;;;;;;;;;;10409161;28;20033;-58
2023/02/18 11:36:37;;;;;;;53.45;26.25;;;;;;;;;;10412780;28;20069;-58
2023/02/18 11:41:43;;;;;;;60.28;25.27;;;;;;;;;;10408936;28;20038;-58
2023/02/18 11:47:05;;;;;;;43.90;25.25;;;;;;;;;;10409123;28;20021;-58
2023/02/18 11:52:33;;;;;;;42.95;23.55;;;;;;;;;;10404053;28;20083;-58
2023/02/18 11:57:38;;;;;;;52.58;24.75;;;;;;;;;;10412343;28;20030;-58
2023/02/18 12:09:07;;;;;;;45.13;22.35;;;;;;;;;;10411561;28;20033;-57
2023/02/18 12:14:22;;;;;;;41.00;22.48;;;;;;;;;;10411992;28;20028;-57
2023/02/18 12:20:05;;;;;;;42.92;21.70;;;;;;;;;;10409730;28;20029;-57
2023/02/18 12:26:00;;;;;;;43.42;21.33;;;;;;;;;;10393517;28;20049;-57
2023/02/18 12:31:26;;;;;;;43.38;20.23;;;;;;;;;;10401086;28;20053;-58
2023/02/18 12:36:52;;;;;;;32.17;19.17;;;;;;;;;;10410282;28;20504;-58
2023/02/18 12:42:11;;;;;;;36.53;20.08;;;;;;;;;;10406893;28;20035;-58
2023/02/18 12:47:46;;;;;;;34.70;20.42;;;;;;;;;;10402721;28;20461;-58
2023/02/18 12:53:26;;;;;;;31.52;18.70;;;;;;;;;;10410434;28;20045;-58
2023/02/18 12:58:51;;;;;;;32.28;19.30;;;;;;;;;;10409883;28;20473;-58
2023/02/18 13:04:37;;;;;;;30.98;18.52;;;;;;;;;;10410906;28;20026;-58
2023/02/18 13:10:17;;;;;;;33.00;18.33;;;;;;;;;;10409270;28;20021;-58
2023/02/18 13:15:26;;;;;;;32.28;18.23;;;;;;;;;;10405798;28;20033;-58
2023/02/18 13:20:48;;;;;;;28.73;16.73;;;;;;;;;;10421337;28;20037;-59
2023/02/18 13:25:55;;;;;;;29.52;17.02;;;;;;;;;;10408711;28;20029;-58
2023/02/18 13:31:30;;;;;;;27.70;17.08;;;;;;;;;;10404986;28;20044;-56
2023/02/18 13:36:51;;;;;;;33.15;16.77;;;;;;;;;;10409148;28;20081;-55
2023/02/18 13:42:15;;;;;;;27.33;15.90;;;;;;;;;;10400617;28;20083;-56
2023/02/18 13:47:42;;;;;;;26.42;15.93;;;;;;;;;;10400755;28;20056;-58
2023/02/18 13:52:43;;;;;;;28.80;16.33;;;;;;;;;;10407451;28;20018;-55
2023/02/18 13:57:48;;;;;;;23.42;15.60;;;;;;;;;;10408460;28;20037;-56
2023/02/18 14:03:02;;;;;;;25.25;15.95;;;;;;;;;;10407533;28;20029;-56
2023/02/18 14:08:35;;;;;;;26.35;14.93;;;;;;;;;;10407942;28;20041;-58
2023/02/18 14:13:58;;;;;;;27.67;14.65;;;;;;;;;;10408044;28;20029;-58
2023/02/18 14:19:00;;;;;;;26.23;16.77;;;;;;;;;;10407218;28;20081;-57
2023/02/18 14:24:06;;;;;;;32.33;16.02;;;;;;;;;;10407775;28;20374;-56
2023/02/18 14:29:12;;;;;;;27.02;16.67;;;;;;;;;;10407792;28;20037;-58
2023/02/18 14:34:55;;;;;;;33.65;17.70;;;;;;;;;;10404841;28;20033;-58
2023/02/18 14:40:15;;;;;;;32.78;17.98;;;;;;;;;;10402368;28;20069;-58
2023/02/18 14:45:34;;;;;;;35.42;18.38;;;;;;;;;;10407398;28;20124;-59
2023/02/18 14:50:36;;;;;;;;;;;;;;;;;;10400110;28;20429;-59
2023/02/18 14:55:43;;;;;;;30.50;18.13;;;;;;;;;;10404728;28;19917;-58
2023/02/18 15:00:44;;;;;;;36.65;18.52;;;;;;;;;;10401047;28;20295;-57
2023/02/18 15:05:46;;;;;;;41.55;18.42;;;;;;;;;;10406607;28;20252;-58
2023/02/18 15:11:00;;;;;;;34.90;18.98;;;;;;;;;;10405448;28;20029;-58
2023/02/18 15:16:07;;;;;;;30.90;18.77;;;;;;;;;;10390728;28;20501;-58
2023/02/18 15:21:22;;;;;;;33.72;18.20;;;;;;;;;;10382747;28;20120;-59
2023/02/18 15:26:23;;;;;;;29.45;17.23;;;;;;;;;;10406504;28;20103;-59
2023/02/18 15:31:29;;;;;;;32.08;17.95;;;;;;;;;;10405204;28;20551;-58
2023/02/18 15:36:30;;;;;;;34.33;18.98;;;;;;;;;;10406069;28;20041;-58
2023/02/18 15:41:31;;;;;;;31.52;18.88;;;;;;;;;;10400857;28;20039;-58
2023/02/18 15:46:32;;;;;;;31.55;18.98;;;;;;;;;;10406219;28;20025;-58
2023/02/18 15:51:32;;;;;;;34.58;19.25;;;;;;;;;;10406522;28;20025;-58
2023/02/18 15:56:37;;;;;;;31.33;19.73;;;;;;;;;;10404281;28;20038;-58
2023/02/18 16:01:38;;;;;;;27.35;19.80;;;;;;;;;;10404818;28;20037;-58
2023/02/18 16:06:46;;;;;;;31.33;20.02;;;;;;;;;;10405084;28;20389;-58
2023/02/18 16:12:00;;;;;;;32.20;20.20;;;;;;;;;;10412220;28;20121;-57
2023/02/18 16:17:20;;;;;;;31.75;20.80;;;;;;;;;;10408078;28;20072;-58
2023/02/18 16:22:29;;;;;;;34.95;21.48;;;;;;;;;;10408045;28;20061;-57
2023/02/18 16:27:35;;;;;;;32.17;21.98;;;;;;;;;;10411827;28;20215;-58
2023/02/18 16:32:35;;;;;;;33.67;21.05;;;;;;;;;;10424982;28;20029;-58
2023/02/18 16:37:39;;;;;;;41.38;23.20;;;;;;;;;;10404718;28;20505;-58
2023/02/18 16:42:39;;;;;;;45.95;23.40;;;;;;;;;;10407746;28;20037;-58
2023/02/18 16:47:41;;;;;;;34.25;23.17;;;;;;;;;;10409764;28;20489;-57
2023/02/18 16:52:42;;;;;;;36.20;23.02;;;;;;;;;;10409191;28;20561;-58
2023/02/18 16:57:42;;;;;;;40.25;23.80;;;;;;;;;;10410300;28;20037;-58
2023/02/18 17:02:55;;;;;;;36.05;22.75;;;;;;;;;;10410078;28;20034;-57
2023/02/18 17:08:18;;;;;;;41.92;24.00;;;;;;;;;;10405510;28;20042;-57
2023/02/18 17:13:22;;;;;;;35.83;23.48;;;;;;;;;;10392650;28;20094;-58
2023/02/18 17:18:24;;;;;;;36.15;22.95;;;;;;;;;;10377852;28;20036;-59
2023/02/18 17:23:25;;;;;;;38.80;24.13;;;;;;;;;;10374978;28;20037;-59
2023/02/18 17:28:25;;;;;;;36.83;23.67;;;;;;;;;;10373963;28;20037;-58
2023/02/18 17:33:26;;;;;;;39.42;24.45;;;;;;;;;;10400311;28;20033;-58
2023/02/18 17:38:27;;;;;;;38.33;23.48;;;;;;;;;;10398633;28;20049;-58
2023/02/18 17:43:27;;;;;;;35.85;23.27;;;;;;;;;;10409138;28;20040;-58
2023/02/18 17:48:28;;;;;;;36.35;23.13;;;;;;;;;;10408566;28;20389;-58
2023/02/18 17:53:29;;;;;;;37.88;22.60;;;;;;;;;;10406797;28;20116;-58
2023/02/18 17:58:29;;;;;;;39.75;23.65;;;;;;;;;;10406339;28;20037;-58
2023/02/18 18:03:30;;;;;;;39.17;22.98;;;;;;;;;;10408070;28;20037;-58
2023/02/18 18:08:31;;;;;;;31.67;21.08;;;;;;;;;;10406657;28;20022;-58
2023/02/18 18:13:32;;;;;;;33.47;22.50;;;;;;;;;;10392568;28;20529;-58
2023/02/18 18:18:33;;;;;;;46.63;21.77;;;;;;;;;;10377332;28;20025;-58
2023/02/18 18:23:33;;;;;;;36.15;21.90;;;;;;;;;;10379585;28;20128;-58
2023/02/18 18:28:34;;;;;;;35.03;20.95;;;;;;;;;;10407315;28;20028;-58
2023/02/18 18:33:34;;;;;;;31.38;20.42;;;;;;;;;;10405137;28;20036;-58
2023/02/18 18:38:35;;;;;;;33.35;20.10;;;;;;;;;;10400654;28;20033;-58
2023/02/18 18:43:37;;;;;;;34.78;20.35;;;;;;;;;;10407446;28;20037;-58
2023/02/18 18:48:38;;;;;;;36.58;20.13;;;;;;;;;;10406669;28;20025;-58
2023/02/18 18:53:38;;;;;;;33.90;20.45;;;;;;;;;;10407104;28;20026;-58
2023/02/18 18:58:39;;;;;;;34.08;18.77;;;;;;;;;;10405517;28;20394;-58
2023/02/18 19:03:41;;;;;;;30.27;18.65;;;;;;;;;;10406791;28;20447;-58
2023/02/18 19:08:42;;;;;;;31.20;18.10;;;;;;;;;;10406887;28;20065;-58
2023/02/18 19:13:44;;;;;;;33.53;17.60;;;;;;;;;;10407121;28;20176;-58
2023/02/18 19:18:46;;;;;;;29.48;18.20;;;;;;;;;;10405812;28;20265;-57
2023/02/18 19:23:47;;;;;;;26.15;17.00;;;;;;;;;;10406525;28;20056;-58
2023/02/18 19:28:47;;;;;;;25.90;16.60;;;;;;;;;;10406548;28;20172;-58
2023/02/18 19:33:50;;;;;;;24.67;16.65;;;;;;;;;;10405924;28;20120;-58
2023/02/18 19:38:50;;;;;;;24.73;16.77;;;;;;;;;;10401788;28;20095;-58
2023/02/18 19:43:53;;;;;;;25.90;16.23;;;;;;;;;;10410395;28;20068;-58
2023/02/18 19:48:54;;;;;;;27.63;16.25;;;;;;;;;;10406866;28;20272;-58
2023/02/18 19:53:55;;;;;;;26.77;15.98;;;;;;;;;;10413969;28;20041;-58
2023/02/18 19:58:56;;;;;;;33.28;16.33;;;;;;;;;;10413512;28;20022;-58
2023/02/18 20:03:58;;;;;;;30.92;17.23;;;;;;;;;;10413073;28;20041;-58
2023/02/18 20:08:59;;;;;;;25.60;17.75;;;;;;;;;;10413166;28;20064;-58
2023/02/18 20:13:59;;;;;;;26.75;17.58;;;;;;;;;;10413363;28;20018;-58
2023/02/18 20:19:00;;;;;;;26.10;17.52;;;;;;;;;;10403332;28;20026;-58
2023/02/18 20:24:01;;;;;;;21.45;15.90;;;;;;;;;;10409964;28;20342;-58
2023/02/18 20:29:01;;;;;;;27.70;17.00;;;;;;;;;;10412706;28;20441;-58
2023/02/18 20:34:02;;;;;;;24.27;16.77;;;;;;;;;;10410220;28;20034;-57
2023/02/18 20:39:04;;;;;;;31.00;17.13;;;;;;;;;;10406714;28;20041;-58
2023/02/18 20:44:05;;;;;;;24.88;17.42;;;;;;;;;;10385470;28;20378;-58
2023/02/18 20:49:13;;;;;;;25.63;16.20;;;;;;;;;;10406011;28;20052;-58
2023/02/18 20:54:18;;;;;;;23.27;16.33;;;;;;;;;;10407351;28;20133;-58
2023/02/18 20:59:20;;;;;;;22.95;16.58;;;;;;;;;;10410257;28;20033;-58
2023/02/18 21:04:21;;;;;;;22.77;15.82;;;;;;;;;;10407648;28;20496;-58
2023/02/18 21:09:21;;;;;;;24.23;16.88;;;;;;;;;;10410142;28;20053;-58
2023/02/18 21:14:23;;;;;;;26.10;16.75;;;;;;;;;;10411409;28;20126;-58
2023/02/18 21:19:24;;;;;;;24.40;16.73;;;;;;;;;;10410756;28;20025;-58
2023/02/18 21:24:24;;;;;;;25.33;17.00;;;;;;;;;;10410468;28;20033;-58
2023/02/18 21:29:26;;;;;;;24.17;17.33;;;;;;;;;;10392535;28;20099;-58
2023/02/18 21:34:26;;;;;;;21.50;16.42;;;;;;;;;;10408514;28;20041;-58
2023/02/18 21:39:27;;;;;;;23.48;16.05;;;;;;;;;;10404842;28;20052;-58
2023/02/18 21:44:28;;;;;;;23.17;16.25;;;;;;;;;;10409396;28;20037;-58
2023/02/18 21:49:28;;;;;;;21.25;15.45;;;;;;;;;;10409716;28;20037;-58
2023/02/18 21:54:38;;;;;;;22.38;15.73;;;;;;;;;;10409673;28;20030;-58
2023/02/18 21:59:39;;;;;;;23.52;16.30;;;;;;;;;;10408557;28;20488;-58
2023/02/18 22:04:40;;;;;;;22.95;16.92;;;;;;;;;;10408335;28;20059;-57
2023/02/18 22:09:41;;;;;;;22.88;17.00;;;;;;;;;;10409068;28;20025;-58
2023/02/18 22:14:42;;;;;;;19.35;15.15;;;;;;;;;;10407471;28;20454;-58
2023/02/18 22:19:43;;;;;;;22.92;16.00;;;;;;;;;;10408662;28;20500;-58
2023/02/18 22:24:43;;;;;;;22.88;15.48;;;;;;;;;;10408131;28;20033;-58
2023/02/18 22:29:46;;;;;;;20.83;16.13;;;;;;;;;;10408115;28;20017;-58
2023/02/18 22:34:46;;;;;;;23.45;16.98;;;;;;;;;;10402139;28;20022;-58
2023/02/18 22:39:48;;;;;;;22.45;16.88;;;;;;;;;;10397330;28;20046;-57
2023/02/18 22:44:48;;;;;;;27.00;16.73;;;;;;;;;;10406415;28;20036;-57
2023/02/18 22:49:49;;;;;;;22.15;16.17;;;;;;;;;;10405426;28;20036;-58
2023/02/18 22:54:50;;;;;;;20.70;15.98;;;;;;;;;;10397755;28;20025;-57
2023/02/18 22:59:50;;;;;;;21.00;15.77;;;;;;;;;;10404654;28;20028;-55
2023/02/18 23:04:51;;;;;;;27.50;16.13;;;;;;;;;;10405821;28;20026;-57
2023/02/18 23:09:51;;;;;;;34.30;17.60;;;;;;;;;;10406940;28;20028;-57
2023/02/18 23:14:52;;;;;;;26.27;15.75;;;;;;;;;;10407470;28;20028;-57
2023/02/18 23:19:53;;;;;;;29.55;17.67;;;;;;;;;;10413531;28;20017;-56
2023/02/18 23:24:53;;;;;;;22.33;15.90;;;;;;;;;;10415324;28;20029;-57
2023/02/18 23:29:55;;;;;;;30.85;16.83;;;;;;;;;;10414797;28;20067;-57
2023/02/18 23:34:55;;;;;;;23.48;15.68;;;;;;;;;;10414886;28;20017;-57
2023/02/18 23:39:56;;;;;;;25.58;15.13;;;;;;;;;;10409427;28;20037;-57
2023/02/18 23:44:56;;;;;;;23.55;15.52;;;;;;;;;;10414115;28;20033;-57
2023/02/18 23:49:57;;;;;;;28.75;15.95;;;;;;;;;;10414650;28;20029;-56
2023/02/18 23:54:57;;;;;;;24.08;15.38;;;;;;;;;;10414207;28;20111;-56
2023/02/18 23:59:58;;;;;;;24.67;15.13;;;;;;;;;;10413704;28;20044;-57
